sensor_id;sensor_type;location;lat;lon;timestamp;P1;durP1;ratioP1;P2;durP2;ratioP2
6249;SDS011;3158;52.148;11.568;2023-07-22T00:01:13;0.90;;;0.90;;
6249;SDS011;3158;52.148;11.568;2023-07-22T00:06:14;0.75;;;0.75;;
6249;SDS011;3158;52.148;11.568;2023-07-22T00:11:15;0.47;;;0.47;;
6249;SDS011;3158;52.148;11.568;2023-07-22T00:16:16;0.60;;;0.60;;
6249;SDS011;3158;52.148;11.568;2023-07-22T00:21:17;0.50;;;0.50;;
6249;SDS011;3158;52.148;11.568;2023-07-22T00:26:18;0.60;;;0.60;;
6249;SDS011;3158;52.148;11.568;2023-07-22T00:31:19;0.70;;;0.70;;
6249;SDS011;3158;52.148;11.568;2023-07-22T00:36:21;0.75;;;0.75;;
6249;SDS011;3158;52.148;11.568;2023-07-22T00:41:22;0.90;;;0.90;;
6249;SDS011;3158;52.148;11.568;2023-07-22T00:46:23;0.95;;;0.95;;
6249;SDS011;3158;52.148;11.568;2023-07-22T00:51:24;1.08;;;1.00;;
6249;SDS011;3158;52.148;11.568;2023-07-22T00:56:25;1.30;;;1.30;;
6249;SDS011;3158;52.148;11.568;2023-07-22T01:01:27;1.42;;;1.30;;
6249;SDS011;3158;52.148;11.568;2023-07-22T01:06:28;1.85;;;1.48;;
6249;SDS011;3158;52.148;11.568;2023-07-22T01:11:30;1.15;;;1.15;;
6249;SDS011;3158;52.148;11.568;2023-07-22T01:16:31;1.48;;;1.48;;
6249;SDS011;3158;52.148;11.568;2023-07-22T01:21:32;1.10;;;1.10;;
6249;SDS011;3158;52.148;11.568;2023-07-22T01:26:34;1.75;;;0.82;;
6249;SDS011;3158;52.148;11.568;2023-07-22T01:31:37;0.98;;;0.98;;
6249;SDS011;3158;52.148;11.568;2023-07-22T01:36:38;0.93;;;0.93;;
6249;SDS011;3158;52.148;11.568;2023-07-22T01:41:40;0.95;;;0.95;;
6249;SDS011;3158;52.148;11.568;2023-07-22T01:46:41;1.30;;;1.30;;
6249;SDS011;3158;52.148;11.568;2023-07-22T01:51:42;1.25;;;1.00;;
6249;SDS011;3158;52.148;11.568;2023-07-22T01:56:43;0.75;;;0.75;;
6249;SDS011;3158;52.148;11.568;2023-07-22T02:01:44;1.08;;;1.08;;
6249;SDS011;3158;52.148;11.568;2023-07-22T02:06:45;3.15;;;1.17;;
6249;SDS011;3158;52.148;11.568;2023-07-22T02:11:47;1.17;;;1.10;;
6249;SDS011;3158;52.148;11.568;2023-07-22T02:16:48;1.13;;;1.10;;
6249;SDS011;3158;52.148;11.568;2023-07-22T02:21:49;1.00;;;1.00;;
6249;SDS011;3158;52.148;11.568;2023-07-22T02:26:50;1.38;;;1.35;;
6249;SDS011;3158;52.148;11.568;2023-07-22T02:31:51;1.05;;;1.00;;
6249;SDS011;3158;52.148;11.568;2023-07-22T02:36:52;1.63;;;1.38;;
6249;SDS011;3158;52.148;11.568;2023-07-22T02:41:53;0.77;;;0.77;;
6249;SDS011;3158;52.148;11.568;2023-07-22T02:46:54;1.48;;;1.48;;
6249;SDS011;3158;52.148;11.568;2023-07-22T02:51:55;1.08;;;1.08;;
6249;SDS011;3158;52.148;11.568;2023-07-22T02:56:56;1.48;;;1.38;;
6249;SDS011;3158;52.148;11.568;2023-07-22T03:01:58;1.27;;;1.27;;
6249;SDS011;3158;52.148;11.568;2023-07-22T03:06:59;1.65;;;1.65;;
6249;SDS011;3158;52.148;11.568;2023-07-22T03:12:00;2.55;;;1.60;;
6249;SDS011;3158;52.148;11.568;2023-07-22T03:17:01;1.42;;;1.42;;
6249;SDS011;3158;52.148;11.568;2023-07-22T03:22:04;1.70;;;1.60;;
6249;SDS011;3158;52.148;11.568;2023-07-22T03:27:06;1.90;;;1.80;;
6249;SDS011;3158;52.148;11.568;2023-07-22T03:32:07;2.33;;;2.15;;
6249;SDS011;3158;52.148;11.568;2023-07-22T03:37:09;2.42;;;2.20;;
6249;SDS011;3158;52.148;11.568;2023-07-22T03:42:10;1.65;;;1.55;;
6249;SDS011;3158;52.148;11.568;2023-07-22T03:47:12;1.83;;;1.73;;
6249;SDS011;3158;52.148;11.568;2023-07-22T03:52:13;4.32;;;1.83;;
6249;SDS011;3158;52.148;11.568;2023-07-22T03:57:14;2.05;;;1.40;;
6249;SDS011;3158;52.148;11.568;2023-07-22T04:02:15;1.70;;;1.52;;
6249;SDS011;3158;52.148;11.568;2023-07-22T04:07:16;1.92;;;1.55;;
6249;SDS011;3158;52.148;11.568;2023-07-22T04:12:17;3.25;;;1.98;;
6249;SDS011;3158;52.148;11.568;2023-07-22T04:17:18;1.73;;;1.63;;
6249;SDS011;3158;52.148;11.568;2023-07-22T04:22:20;2.05;;;1.83;;
6249;SDS011;3158;52.148;11.568;2023-07-22T04:27:21;2.00;;;1.90;;
6249;SDS011;3158;52.148;11.568;2023-07-22T04:32:22;1.98;;;1.88;;
6249;SDS011;3158;52.148;11.568;2023-07-22T04:37:24;1.80;;;1.70;;
6249;SDS011;3158;52.148;11.568;2023-07-22T04:42:25;1.73;;;1.63;;
6249;SDS011;3158;52.148;11.568;2023-07-22T04:47:27;6.22;;;2.53;;
6249;SDS011;3158;52.148;11.568;2023-07-22T04:52:28;3.00;;;2.15;;
6249;SDS011;3158;52.148;11.568;2023-07-22T04:57:29;1.95;;;1.85;;
6249;SDS011;3158;52.148;11.568;2023-07-22T05:02:31;1.77;;;1.65;;
6249;SDS011;3158;52.148;11.568;2023-07-22T05:07:32;4.25;;;2.60;;
6249;SDS011;3158;52.148;11.568;2023-07-22T05:12:33;2.28;;;2.15;;
6249;SDS011;3158;52.148;11.568;2023-07-22T05:17:34;1.55;;;1.45;;
6249;SDS011;3158;52.148;11.568;2023-07-22T05:22:35;5.43;;;2.15;;
6249;SDS011;3158;52.148;11.568;2023-07-22T05:27:37;2.42;;;2.22;;
6249;SDS011;3158;52.148;11.568;2023-07-22T05:32:38;1.55;;;1.50;;
6249;SDS011;3158;52.148;11.568;2023-07-22T05:37:39;1.83;;;1.73;;
6249;SDS011;3158;52.148;11.568;2023-07-22T05:42:40;2.63;;;1.48;;
6249;SDS011;3158;52.148;11.568;2023-07-22T05:47:41;1.63;;;1.52;;
6249;SDS011;3158;52.148;11.568;2023-07-22T05:52:42;1.90;;;1.80;;
6249;SDS011;3158;52.148;11.568;2023-07-22T05:57:43;2.95;;;1.95;;
6249;SDS011;3158;52.148;11.568;2023-07-22T06:02:45;1.88;;;1.77;;
6249;SDS011;3158;52.148;11.568;2023-07-22T06:07:46;2.38;;;1.90;;
6249;SDS011;3158;52.148;11.568;2023-07-22T06:12:47;1.70;;;1.58;;
6249;SDS011;3158;52.148;11.568;2023-07-22T06:17:48;6.43;;;2.03;;
6249;SDS011;3158;52.148;11.568;2023-07-22T06:22:49;3.92;;;1.42;;
6249;SDS011;3158;52.148;11.568;2023-07-22T06:27:50;2.17;;;1.55;;
6249;SDS011;3158;52.148;11.568;2023-07-22T06:32:54;1.77;;;1.67;;
6249;SDS011;3158;52.148;11.568;2023-07-22T06:37:55;6.40;;;1.77;;
6249;SDS011;3158;52.148;11.568;2023-07-22T06:42:56;2.30;;;1.27;;
6249;SDS011;3158;52.148;11.568;2023-07-22T06:47:57;1.98;;;1.83;;
6249;SDS011;3158;52.148;11.568;2023-07-22T06:52:58;1.70;;;1.42;;
6249;SDS011;3158;52.148;11.568;2023-07-22T06:57:59;1.77;;;1.67;;
6249;SDS011;3158;52.148;11.568;2023-07-22T07:03:00;1.40;;;1.30;;
6249;SDS011;3158;52.148;11.568;2023-07-22T07:08:01;4.68;;;1.40;;
6249;SDS011;3158;52.148;11.568;2023-07-22T07:13:02;1.30;;;1.30;;
6249;SDS011;3158;52.148;11.568;2023-07-22T07:18:03;2.47;;;1.48;;
6249;SDS011;3158;52.148;11.568;2023-07-22T07:23:05;2.13;;;1.15;;
6249;SDS011;3158;52.148;11.568;2023-07-22T07:28:06;1.33;;;1.17;;
6249;SDS011;3158;52.148;11.568;2023-07-22T07:33:07;1.90;;;1.25;;
6249;SDS011;3158;52.148;11.568;2023-07-22T07:38:08;1.70;;;1.60;;
6249;SDS011;3158;52.148;11.568;2023-07-22T07:43:09;1.33;;;1.33;;
6249;SDS011;3158;52.148;11.568;2023-07-22T07:48:10;1.90;;;1.45;;
6249;SDS011;3158;52.148;11.568;2023-07-22T07:53:11;1.73;;;0.90;;
6249;SDS011;3158;52.148;11.568;2023-07-22T07:58:12;1.15;;;1.05;;
6249;SDS011;3158;52.148;11.568;2023-07-22T08:03:13;1.15;;;1.15;;
6249;SDS011;3158;52.148;11.568;2023-07-22T08:08:15;1.13;;;1.13;;
6249;SDS011;3158;52.148;11.568;2023-07-22T08:13:16;3.90;;;1.25;;
6249;SDS011;3158;52.148;11.568;2023-07-22T08:18:17;1.08;;;1.08;;
6249;SDS011;3158;52.148;11.568;2023-07-22T08:23:18;1.20;;;1.20;;
6249;SDS011;3158;52.148;11.568;2023-07-22T08:28:20;2.22;;;1.33;;
6249;SDS011;3158;52.148;11.568;2023-07-22T08:33:21;1.15;;;1.15;;
6249;SDS011;3158;52.148;11.568;2023-07-22T08:38:22;1.27;;;1.23;;
6249;SDS011;3158;52.148;11.568;2023-07-22T08:43:23;1.27;;;1.20;;
6249;SDS011;3158;52.148;11.568;2023-07-22T08:48:26;2.10;;;1.60;;
6249;SDS011;3158;52.148;11.568;2023-07-22T08:53:27;1.30;;;1.30;;
6249;SDS011;3158;52.148;11.568;2023-07-22T08:58:29;1.10;;;1.10;;
6249;SDS011;3158;52.148;11.568;2023-07-22T09:03:30;2.35;;;1.00;;
6249;SDS011;3158;52.148;11.568;2023-07-22T09:08:31;1.10;;;1.10;;
6249;SDS011;3158;52.148;11.568;2023-07-22T09:13:32;4.47;;;1.45;;
6249;SDS011;3158;52.148;11.568;2023-07-22T09:18:34;1.10;;;1.10;;
6249;SDS011;3158;52.148;11.568;2023-07-22T09:23:36;1.00;;;1.00;;
6249;SDS011;3158;52.148;11.568;2023-07-22T09:33:52;1.65;;;1.50;;
6249;SDS011;3158;52.148;11.568;2023-07-22T09:39:02;1.58;;;1.48;;
6249;SDS011;3158;52.148;11.568;2023-07-22T09:44:03;3.33;;;1.70;;
6249;SDS011;3158;52.148;11.568;2023-07-22T09:49:05;1.40;;;1.30;;
6249;SDS011;3158;52.148;11.568;2023-07-22T09:54:07;9.25;;;1.63;;
6249;SDS011;3158;52.148;11.568;2023-07-22T09:59:08;1.17;;;1.17;;
6249;SDS011;3158;52.148;11.568;2023-07-22T10:04:10;3.25;;;1.40;;
6249;SDS011;3158;52.148;11.568;2023-07-22T10:09:11;1.38;;;1.38;;
6249;SDS011;3158;52.148;11.568;2023-07-22T10:14:13;1.20;;;1.20;;
6249;SDS011;3158;52.148;11.568;2023-07-22T10:19:14;1.20;;;1.20;;
6249;SDS011;3158;52.148;11.568;2023-07-22T10:24:16;2.30;;;1.70;;
6249;SDS011;3158;52.148;11.568;2023-07-22T10:29:17;1.65;;;1.55;;
6249;SDS011;3158;52.148;11.568;2023-07-22T10:34:25;1.70;;;1.60;;
6249;SDS011;3158;52.148;11.568;2023-07-22T10:39:29;1.80;;;1.70;;
6249;SDS011;3158;52.148;11.568;2023-07-22T10:44:31;1.92;;;1.80;;
6249;SDS011;3158;52.148;11.568;2023-07-22T10:49:47;2.25;;;2.15;;
6249;SDS011;3158;52.148;11.568;2023-07-22T10:54:48;2.95;;;2.75;;
6249;SDS011;3158;52.148;11.568;2023-07-22T10:59:49;3.60;;;2.67;;
6249;SDS011;3158;52.148;11.568;2023-07-22T11:04:51;1.92;;;1.83;;
6249;SDS011;3158;52.148;11.568;2023-07-22T11:09:53;2.55;;;2.35;;
6249;SDS011;3158;52.148;11.568;2023-07-22T11:15:04;2.97;;;2.40;;
6249;SDS011;3158;52.148;11.568;2023-07-22T11:20:06;2.13;;;1.92;;
6249;SDS011;3158;52.148;11.568;2023-07-22T11:25:07;2.53;;;2.38;;
6249;SDS011;3158;52.148;11.568;2023-07-22T11:30:10;1.70;;;1.70;;
6249;SDS011;3158;52.148;11.568;2023-07-22T11:35:11;1.50;;;1.40;;
6249;SDS011;3158;52.148;11.568;2023-07-22T11:40:12;1.50;;;1.38;;
6249;SDS011;3158;52.148;11.568;2023-07-22T11:45:14;0.82;;;0.82;;
6249;SDS011;3158;52.148;11.568;2023-07-22T11:50:15;0.80;;;0.80;;
6249;SDS011;3158;52.148;11.568;2023-07-22T11:55:16;0.50;;;0.50;;
6249;SDS011;3158;52.148;11.568;2023-07-22T12:00:24;0.90;;;0.50;;
6249;SDS011;3158;52.148;11.568;2023-07-22T12:05:25;1.10;;;0.85;;
6249;SDS011;3158;52.148;11.568;2023-07-22T12:10:26;0.73;;;0.68;;
6249;SDS011;3158;52.148;11.568;2023-07-22T12:15:27;0.68;;;0.68;;
6249;SDS011;3158;52.148;11.568;2023-07-22T12:20:29;0.70;;;0.70;;
6249;SDS011;3158;52.148;11.568;2023-07-22T12:25:31;0.80;;;0.80;;
6249;SDS011;3158;52.148;11.568;2023-07-22T12:30:32;1.08;;;0.75;;
6249;SDS011;3158;52.148;11.568;2023-07-22T12:35:33;1.00;;;1.00;;
6249;SDS011;3158;52.148;11.568;2023-07-22T12:40:35;0.85;;;0.85;;
6249;SDS011;3158;52.148;11.568;2023-07-22T12:45:36;3.33;;;0.80;;
6249;SDS011;3158;52.148;11.568;2023-07-22T12:50:37;1.17;;;1.00;;
6249;SDS011;3158;52.148;11.568;2023-07-22T12:55:38;1.02;;;0.82;;
6249;SDS011;3158;52.148;11.568;2023-07-22T13:00:39;1.23;;;1.23;;
6249;SDS011;3158;52.148;11.568;2023-07-22T13:05:41;1.50;;;1.50;;
6249;SDS011;3158;52.148;11.568;2023-07-22T13:10:42;1.40;;;1.30;;
6249;SDS011;3158;52.148;11.568;2023-07-22T13:15:44;1.10;;;1.10;;
6249;SDS011;3158;52.148;11.568;2023-07-22T13:20:45;1.30;;;0.82;;
6249;SDS011;3158;52.148;11.568;2023-07-22T13:25:47;1.25;;;0.93;;
6249;SDS011;3158;52.148;11.568;2023-07-22T13:30:48;1.10;;;1.10;;
6249;SDS011;3158;52.148;11.568;2023-07-22T13:35:49;1.55;;;1.55;;
6249;SDS011;3158;52.148;11.568;2023-07-22T13:40:50;1.20;;;1.20;;
6249;SDS011;3158;52.148;11.568;2023-07-22T13:45:51;1.17;;;1.17;;
6249;SDS011;3158;52.148;11.568;2023-07-22T13:50:52;1.00;;;1.00;;
6249;SDS011;3158;52.148;11.568;2023-07-22T13:55:53;1.08;;;1.08;;
6249;SDS011;3158;52.148;11.568;2023-07-22T14:00:54;1.20;;;1.20;;
6249;SDS011;3158;52.148;11.568;2023-07-22T14:05:56;1.67;;;1.50;;
6249;SDS011;3158;52.148;11.568;2023-07-22T14:10:57;1.40;;;1.40;;
6249;SDS011;3158;52.148;11.568;2023-07-22T14:15:58;1.73;;;1.63;;
6249;SDS011;3158;52.148;11.568;2023-07-22T14:20:59;1.58;;;1.48;;
6249;SDS011;3158;52.148;11.568;2023-07-22T14:26:01;1.00;;;1.00;;
6249;SDS011;3158;52.148;11.568;2023-07-22T14:31:02;1.10;;;1.00;;
6249;SDS011;3158;52.148;11.568;2023-07-22T14:36:04;1.08;;;1.08;;
6249;SDS011;3158;52.148;11.568;2023-07-22T14:41:05;1.45;;;1.35;;
6249;SDS011;3158;52.148;11.568;2023-07-22T14:46:06;1.70;;;1.60;;
6249;SDS011;3158;52.148;11.568;2023-07-22T14:51:07;1.30;;;1.30;;
6249;SDS011;3158;52.148;11.568;2023-07-22T14:56:08;1.63;;;1.17;;
6249;SDS011;3158;52.148;11.568;2023-07-22T15:01:09;1.58;;;1.40;;
6249;SDS011;3158;52.148;11.568;2023-07-22T15:06:10;1.35;;;1.25;;
6249;SDS011;3158;52.148;11.568;2023-07-22T15:11:11;3.15;;;1.35;;
6249;SDS011;3158;52.148;11.568;2023-07-22T15:16:12;1.35;;;1.35;;
6249;SDS011;3158;52.148;11.568;2023-07-22T15:21:13;1.63;;;1.52;;
6249;SDS011;3158;52.148;11.568;2023-07-22T15:26:14;1.65;;;1.65;;
6249;SDS011;3158;52.148;11.568;2023-07-22T15:31:19;1.92;;;1.83;;
6249;SDS011;3158;52.148;11.568;2023-07-22T15:36:21;1.33;;;1.30;;
6249;SDS011;3158;52.148;11.568;2023-07-22T15:41:22;1.05;;;1.05;;
6249;SDS011;3158;52.148;11.568;2023-07-22T15:46:23;3.72;;;1.55;;
6249;SDS011;3158;52.148;11.568;2023-07-22T15:51:24;2.03;;;1.92;;
6249;SDS011;3158;52.148;11.568;2023-07-22T15:56:25;1.85;;;1.50;;
6249;SDS011;3158;52.148;11.568;2023-07-22T16:01:26;2.10;;;1.83;;
6249;SDS011;3158;52.148;11.568;2023-07-22T16:06:27;1.50;;;1.50;;
6249;SDS011;3158;52.148;11.568;2023-07-22T16:11:29;1.30;;;1.20;;
6249;SDS011;3158;52.148;11.568;2023-07-22T16:16:30;1.33;;;1.33;;
6249;SDS011;3158;52.148;11.568;2023-07-22T16:21:33;1.50;;;1.50;;
6249;SDS011;3158;52.148;11.568;2023-07-22T16:26:33;1.42;;;1.33;;
6249;SDS011;3158;52.148;11.568;2023-07-22T16:31:34;1.52;;;1.42;;
6249;SDS011;3158;52.148;11.568;2023-07-22T16:36:36;1.48;;;1.48;;
6249;SDS011;3158;52.148;11.568;2023-07-22T16:41:37;1.23;;;1.23;;
6249;SDS011;3158;52.148;11.568;2023-07-22T16:46:38;1.50;;;1.50;;
6249;SDS011;3158;52.148;11.568;2023-07-22T16:51:39;1.17;;;1.17;;
6249;SDS011;3158;52.148;11.568;2023-07-22T16:56:40;1.30;;;1.20;;
6249;SDS011;3158;52.148;11.568;2023-07-22T17:01:41;1.88;;;1.75;;
6249;SDS011;3158;52.148;11.568;2023-07-22T17:06:42;1.80;;;1.70;;
6249;SDS011;3158;52.148;11.568;2023-07-22T17:11:44;1.73;;;1.73;;
6249;SDS011;3158;52.148;11.568;2023-07-22T17:16:45;1.40;;;1.40;;
6249;SDS011;3158;52.148;11.568;2023-07-22T17:21:46;1.35;;;1.35;;
6249;SDS011;3158;52.148;11.568;2023-07-22T17:26:47;1.42;;;1.33;;
6249;SDS011;3158;52.148;11.568;2023-07-22T17:31:48;1.60;;;1.60;;
6249;SDS011;3158;52.148;11.568;2023-07-22T17:36:49;2.90;;;1.50;;
6249;SDS011;3158;52.148;11.568;2023-07-22T17:41:50;1.50;;;1.40;;
6249;SDS011;3158;52.148;11.568;2023-07-22T17:46:51;1.08;;;1.08;;
6249;SDS011;3158;52.148;11.568;2023-07-22T17:51:52;1.50;;;1.35;;
6249;SDS011;3158;52.148;11.568;2023-07-22T17:56:53;1.48;;;1.40;;
6249;SDS011;3158;52.148;11.568;2023-07-22T18:01:54;1.15;;;1.15;;
6249;SDS011;3158;52.148;11.568;2023-07-22T18:06:55;1.20;;;1.20;;
6249;SDS011;3158;52.148;11.568;2023-07-22T18:11:56;1.13;;;1.13;;
6249;SDS011;3158;52.148;11.568;2023-07-22T18:16:57;11.20;;;1.40;;
6249;SDS011;3158;52.148;11.568;2023-07-22T18:21:58;1.48;;;1.45;;
6249;SDS011;3158;52.148;11.568;2023-07-22T18:26:59;1.60;;;1.50;;
6249;SDS011;3158;52.148;11.568;2023-07-22T18:32:01;1.30;;;1.30;;
6249;SDS011;3158;52.148;11.568;2023-07-22T18:37:02;1.23;;;1.13;;
6249;SDS011;3158;52.148;11.568;2023-07-22T18:42:03;1.05;;;1.05;;
6249;SDS011;3158;52.148;11.568;2023-07-22T18:47:04;1.00;;;1.00;;
6249;SDS011;3158;52.148;11.568;2023-07-22T18:52:05;1.40;;;1.30;;
6249;SDS011;3158;52.148;11.568;2023-07-22T18:57:07;1.55;;;1.52;;
6249;SDS011;3158;52.148;11.568;2023-07-22T19:02:08;1.23;;;1.23;;
6249;SDS011;3158;52.148;11.568;2023-07-22T19:07:09;1.50;;;1.40;;
6249;SDS011;3158;52.148;11.568;2023-07-22T19:12:11;1.73;;;1.63;;
6249;SDS011;3158;52.148;11.568;2023-07-22T19:17:12;4.10;;;2.53;;
6249;SDS011;3158;52.148;11.568;2023-07-22T19:22:13;1.25;;;1.15;;
6249;SDS011;3158;52.148;11.568;2023-07-22T19:27:14;1.45;;;1.38;;
6249;SDS011;3158;52.148;11.568;2023-07-22T19:32:15;1.55;;;1.42;;
6249;SDS011;3158;52.148;11.568;2023-07-22T19:37:16;1.25;;;1.25;;
6249;SDS011;3158;52.148;11.568;2023-07-22T19:42:17;2.15;;;1.35;;
6249;SDS011;3158;52.148;11.568;2023-07-22T19:47:18;1.63;;;0.98;;
6249;SDS011;3158;52.148;11.568;2023-07-22T19:52:19;6.18;;;1.58;;
6249;SDS011;3158;52.148;11.568;2023-07-22T19:57:20;2.65;;;1.45;;
6249;SDS011;3158;52.148;11.568;2023-07-22T20:02:21;1.45;;;1.35;;
6249;SDS011;3158;52.148;11.568;2023-07-22T20:07:22;2.88;;;1.50;;
6249;SDS011;3158;52.148;11.568;2023-07-22T20:12:23;1.52;;;1.52;;
6249;SDS011;3158;52.148;11.568;2023-07-22T20:17:24;1.35;;;1.35;;
6249;SDS011;3158;52.148;11.568;2023-07-22T20:22:25;3.13;;;1.52;;
6249;SDS011;3158;52.148;11.568;2023-07-22T20:27:26;2.35;;;1.80;;
6249;SDS011;3158;52.148;11.568;2023-07-22T20:32:28;3.10;;;2.90;;
6249;SDS011;3158;52.148;11.568;2023-07-22T20:37:29;2.13;;;1.90;;
6249;SDS011;3158;52.148;11.568;2023-07-22T20:42:30;9.30;;;1.70;;
6249;SDS011;3158;52.148;11.568;2023-07-22T20:47:31;1.80;;;1.70;;
6249;SDS011;3158;52.148;11.568;2023-07-22T20:52:32;1.38;;;1.38;;
6249;SDS011;3158;52.148;11.568;2023-07-22T20:57:33;1.25;;;1.25;;
6249;SDS011;3158;52.148;11.568;2023-07-22T21:02:34;1.70;;;1.60;;
6249;SDS011;3158;52.148;11.568;2023-07-22T21:07:38;1.40;;;1.30;;
6249;SDS011;3158;52.148;11.568;2023-07-22T21:12:40;1.10;;;1.10;;
6249;SDS011;3158;52.148;11.568;2023-07-22T21:17:41;1.20;;;1.20;;
6249;SDS011;3158;52.148;11.568;2023-07-22T21:22:42;1.70;;;1.05;;
6249;SDS011;3158;52.148;11.568;2023-07-22T21:27:43;1.70;;;1.58;;
6249;SDS011;3158;52.148;11.568;2023-07-22T21:32:44;1.85;;;1.70;;
6249;SDS011;3158;52.148;11.568;2023-07-22T21:37:45;1.38;;;1.38;;
6249;SDS011;3158;52.148;11.568;2023-07-22T21:42:46;1.58;;;1.58;;
6249;SDS011;3158;52.148;11.568;2023-07-22T21:47:47;1.25;;;1.25;;
6249;SDS011;3158;52.148;11.568;2023-07-22T21:52:48;1.45;;;1.35;;
6249;SDS011;3158;52.148;11.568;2023-07-22T21:57:50;1.92;;;1.70;;
6249;SDS011;3158;52.148;11.568;2023-07-22T22:02:51;1.98;;;1.63;;
6249;SDS011;3158;52.148;11.568;2023-07-22T22:07:52;1.63;;;1.50;;
6249;SDS011;3158;52.148;11.568;2023-07-22T22:12:53;1.55;;;1.50;;
6249;SDS011;3158;52.148;11.568;2023-07-22T22:17:54;2.42;;;1.17;;
6249;SDS011;3158;52.148;11.568;2023-07-22T22:22:55;1.77;;;1.42;;
6249;SDS011;3158;52.148;11.568;2023-07-22T22:27:56;1.40;;;1.40;;
6249;SDS011;3158;52.148;11.568;2023-07-22T22:32:57;1.35;;;1.35;;
6249;SDS011;3158;52.148;11.568;2023-07-22T22:37:58;3.97;;;1.20;;
6249;SDS011;3158;52.148;11.568;2023-07-22T22:42:59;3.45;;;1.40;;
6249;SDS011;3158;52.148;11.568;2023-07-22T22:48:01;1.70;;;1.60;;
6249;SDS011;3158;52.148;11.568;2023-07-22T22:53:02;1.65;;;1.65;;
6249;SDS011;3158;52.148;11.568;2023-07-22T22:58:03;2.72;;;1.85;;
6249;SDS011;3158;52.148;11.568;2023-07-22T23:03:04;1.50;;;1.40;;
6249;SDS011;3158;52.148;11.568;2023-07-22T23:08:05;1.50;;;1.38;;
6249;SDS011;3158;52.148;11.568;2023-07-22T23:13:06;1.63;;;1.52;;
6249;SDS011;3158;52.148;11.568;2023-07-22T23:18:07;1.98;;;1.45;;
6249;SDS011;3158;52.148;11.568;2023-07-22T23:23:08;1.75;;;1.65;;
6249;SDS011;3158;52.148;11.568;2023-07-22T23:28:09;3.42;;;1.60;;
6249;SDS011;3158;52.148;11.568;2023-07-22T23:33:11;1.35;;;1.25;;
6249;SDS011;3158;52.148;11.568;2023-07-22T23:38:12;1.80;;;1.70;;
6249;SDS011;3158;52.148;11.568;2023-07-22T23:43:14;1.55;;;1.45;;
6249;SDS011;3158;52.148;11.568;2023-07-22T23:48:15;2.88;;;1.63;;
6249;SDS011;3158;52.148;11.568;2023-07-22T23:53:16;1.60;;;1.50;;
6249;SDS011;3158;52.148;11.568;2023-07-22T23:58:17;1.80;;;1.70;;
